VTPH/HHQ METAR and TAF weather

Enter ICAO airport designator
Station Type Date Time Source
VTPH METAR 2021/05/10 02:00 UTC NOAA

VTPH 100200Z VRB03KT 9999 FEW030 31/25 Q1009 NOSIG


Station Type Date Time Source
VTPH Decoded METAR 2021/05/10 02:00 UTC NOAA

Hua Hin, Thailand (VTPH) 12-35N 099-57E 6M
May 09, 2021 - 10:00 PM EDT / 2021.05.10 0200 UTC
Wind: Variable at 3 MPH (3 KT):0
Visibility: greater than 7 mile(s):0
Sky conditions: mostly clear
Temperature: 87 F (31 C)
Heat index: 97.5 F (36.4 C):1
Dew Point: 77 F (25 C)
Relative Humidity: 70%
Pressure (altimeter): 29.80 in. Hg (1009 hPa)
ob: VTPH 100200Z VRB03KT 9999 FEW030 31/25 Q1009 NOSIG
cycle: 2

Station Type Date Time Source
VTPH TAF 2021/05/09 18:00 UTC NOAA

TAF VTPH 091700Z 0918/1018 15005KT 9999 FEW020

Example: see airport list